createdAt,value
2022-08-05T00:01:57.128Z,32.95
2022-08-05T00:04:09.805Z,33.19
2022-08-05T00:06:29.052Z,32.73
2022-08-05T00:08:36.316Z,32.89
2022-08-05T00:10:38.243Z,33.11
2022-08-05T00:12:56.126Z,32.91
2022-08-05T00:14:58.669Z,33.73
2022-08-05T00:17:01.817Z,32.95
2022-08-05T00:19:04.112Z,33.06
2022-08-05T00:21:06.726Z,33.04
2022-08-05T00:23:12.829Z,33.12
2022-08-05T00:25:14.816Z,33.26
2022-08-05T00:27:18.100Z,33.21
2022-08-05T00:29:22.680Z,33.02
2022-08-05T00:31:53.884Z,33.14
2022-08-05T00:34:56.931Z,33.52
2022-08-05T00:36:16.333Z,33.31
2022-08-05T00:38:33.926Z,33.17
2022-08-05T00:40:51.976Z,34.08
2022-08-05T00:42:56.531Z,33.21
2022-08-05T00:44:58.890Z,33.27
2022-08-05T00:47:01.943Z,32.92
2022-08-05T00:49:06.026Z,32.39
2022-08-05T00:51:50.609Z,32.87
2022-08-05T00:54:01.482Z,32.95
2022-08-05T00:55:53.762Z,32.91
2022-08-05T00:57:59.089Z,32.89
2022-08-05T01:00:02.313Z,32.97
2022-08-05T01:02:04.401Z,32.95
2022-08-05T01:04:13.838Z,33.10
2022-08-05T01:06:16.091Z,33.68
2022-08-05T01:08:41.246Z,33.08
2022-08-05T01:10:52.659Z,33.02
2022-08-05T01:13:12.790Z,33.30
2022-08-05T01:15:36.158Z,33.35
2022-08-05T01:17:45.554Z,33.55
2022-08-05T01:20:27.102Z,33.37
2022-08-05T01:22:47.079Z,33.86
2022-08-05T01:25:16.200Z,34.79
2022-08-05T01:28:05.970Z,33.40
2022-08-05T01:30:18.816Z,33.53
2022-08-05T01:32:23.897Z,33.72
2022-08-05T01:34:42.370Z,33.67
2022-08-05T01:37:09.002Z,33.54
2022-08-05T01:39:13.619Z,33.80
2022-08-05T01:41:18.133Z,33.75
2022-08-05T01:43:24.717Z,33.56
2022-08-05T01:45:34.851Z,33.78
2022-08-05T01:47:46.417Z,33.40
2022-08-05T01:50:01.494Z,34.36
2022-08-05T01:52:17.337Z,33.55
2022-08-05T01:54:23.625Z,33.57
2022-08-05T01:58:12.660Z,34.03
2022-08-05T01:58:56.346Z,33.89
2022-08-05T02:00:59.787Z,33.66
2022-08-05T02:03:28.967Z,34.70
2022-08-05T02:05:36.767Z,33.96
2022-08-05T02:07:38.736Z,33.91
2022-08-05T02:09:40.508Z,33.85
2022-08-05T02:11:52.468Z,34.07
2022-08-05T02:14:17.300Z,33.53
2022-08-05T02:16:27.762Z,34.14
2022-08-05T02:18:42.000Z,34.06
2022-08-05T02:20:49.580Z,33.78
2022-08-05T02:22:58.461Z,33.65
2022-08-05T02:25:08.133Z,34.98
2022-08-05T02:27:12.371Z,34.25
2022-08-05T02:29:21.545Z,34.16
2022-08-05T02:31:34.760Z,34.37
2022-08-05T02:33:42.258Z,34.44
2022-08-05T02:35:55.951Z,34.27
2022-08-05T02:38:02.430Z,34.11
2022-08-05T02:40:05.643Z,35.01
2022-08-05T02:42:11.625Z,35.48
2022-08-05T02:44:28.994Z,35.40
2022-08-05T02:46:31.186Z,34.48
2022-08-05T02:48:33.803Z,35.24
2022-08-05T02:50:36.616Z,35.26
2022-08-05T02:52:38.431Z,35.05
2022-08-05T02:54:51.107Z,34.98
2022-08-05T02:56:54.706Z,34.97
2022-08-05T02:58:57.555Z,35.40
2022-08-05T03:01:02.665Z,35.80
2022-08-05T03:03:10.407Z,34.84
2022-08-05T03:05:13.929Z,35.17
2022-08-05T03:07:40.540Z,35.05
2022-08-05T03:09:43.870Z,34.71
2022-08-05T03:11:58.081Z,35.36
2022-08-05T03:14:03.092Z,34.74
2022-08-05T03:16:05.972Z,35.24
2022-08-05T03:18:11.168Z,35.68
2022-08-05T03:20:13.854Z,35.19
2022-08-05T03:22:15.979Z,35.27
2022-08-05T03:24:29.563Z,35.81
2022-08-05T03:26:32.823Z,35.12
2022-08-05T03:28:34.509Z,34.92
2022-08-05T03:30:38.285Z,35.15
2022-08-05T03:32:40.219Z,36.61
2022-08-05T03:34:50.819Z,36.43
2022-08-05T03:36:53.199Z,36.38
2022-08-05T03:38:54.805Z,36.45
2022-08-05T03:40:57.769Z,36.69
2022-08-05T03:43:01.343Z,36.05
2022-08-05T03:45:22.769Z,36.71
2022-08-05T03:47:25.354Z,36.99
2022-08-05T03:49:51.993Z,36.79
2022-08-05T03:52:39.167Z,36.67
2022-08-05T03:55:52.265Z,37.16
2022-08-05T03:56:52.678Z,36.53
2022-08-05T03:58:57.628Z,36.57
2022-08-05T04:01:04.361Z,36.83
2022-08-05T04:03:07.910Z,36.21
2022-08-05T04:05:18.775Z,37.09
2022-08-05T04:07:24.953Z,36.92
2022-08-05T04:09:28.116Z,36.52
2022-08-05T04:11:47.334Z,37.11
2022-08-05T04:13:53.598Z,37.34
2022-08-05T04:16:04.191Z,36.82
2022-08-05T04:18:09.368Z,37.29
2022-08-05T04:20:23.417Z,37.71
2022-08-05T04:22:24.939Z,37.44
2022-08-05T04:24:28.333Z,36.91
2022-08-05T04:26:32.356Z,37.42
2022-08-05T04:28:34.175Z,37.58
2022-08-05T04:30:36.423Z,37.60
2022-08-05T04:32:38.070Z,37.68
2022-08-05T04:34:42.942Z,37.21
2022-08-05T04:36:49.915Z,37.05
2022-08-05T04:38:54.615Z,37.16
2022-08-05T04:40:58.790Z,37.44
2022-08-05T04:43:00.315Z,36.83
2022-08-05T04:45:01.828Z,37.33
2022-08-05T04:47:09.459Z,37.14
2022-08-05T04:49:14.470Z,37.20
2022-08-05T04:51:17.732Z,37.57
2022-08-05T04:53:19.610Z,38.04
2022-08-05T04:56:11.894Z,38.50
2022-08-05T04:57:47.550Z,37.89
2022-08-05T04:59:49.880Z,38.22
2022-08-05T05:02:07.435Z,37.43
2022-08-05T05:04:14.424Z,37.00
2022-08-05T05:06:39.292Z,36.90
2022-08-05T05:08:38.044Z,36.86
2022-08-05T05:10:55.848Z,36.85
2022-08-05T05:12:58.394Z,36.81
2022-08-05T05:15:03.796Z,37.01
2022-08-05T05:17:07.480Z,37.05
2022-08-05T05:19:19.361Z,37.37
2022-08-05T05:21:27.190Z,37.61
2022-08-05T05:24:01.977Z,37.65
2022-08-05T05:25:50.749Z,37.02
2022-08-05T05:27:55.844Z,37.38
2022-08-05T05:30:03.917Z,37.52
2022-08-05T05:32:07.036Z,37.56
2022-08-05T05:34:14.140Z,37.55
2022-08-05T05:36:17.449Z,37.97
2022-08-05T05:38:22.614Z,37.72
2022-08-05T05:40:32.233Z,37.86
2022-08-05T05:42:34.903Z,37.51
2022-08-05T05:44:37.723Z,37.26
2022-08-05T05:46:44.923Z,37.44
2022-08-05T05:48:49.621Z,37.91
2022-08-05T05:50:52.568Z,37.36
2022-08-05T05:52:54.359Z,37.74
2022-08-05T05:54:56.032Z,37.74
2022-08-05T05:56:57.687Z,37.68
2022-08-05T05:59:03.188Z,37.99
2022-08-05T06:01:12.781Z,37.44
2022-08-05T06:03:39.671Z,37.68
2022-08-05T06:05:36.788Z,37.58
2022-08-05T06:07:41.760Z,37.22
2022-08-05T06:09:59.926Z,37.29
2022-08-05T06:12:03.777Z,37.11
2022-08-05T06:14:05.277Z,36.97
2022-08-05T06:16:30.495Z,36.98
2022-08-05T06:18:31.427Z,36.94
2022-08-05T06:20:33.402Z,37.04
2022-08-05T06:22:37.489Z,36.90
2022-08-05T06:24:48.214Z,37.33
2022-08-05T06:26:52.048Z,37.30
2022-08-05T06:28:54.757Z,37.02
2022-08-05T06:30:56.536Z,37.14
2022-08-05T06:32:58.891Z,37.52
2022-08-05T06:35:06.078Z,37.71
2022-08-05T06:37:52.323Z,37.80
2022-08-05T06:39:44.229Z,37.81
2022-08-05T06:41:45.824Z,37.83
2022-08-05T06:43:57.576Z,37.76
2022-08-05T06:46:06.828Z,37.73
2022-08-05T06:48:36.988Z,37.86
2022-08-05T06:50:31.102Z,38.19
2022-08-05T06:52:36.618Z,38.38
2022-08-05T06:54:39.883Z,38.21
2022-08-05T06:56:41.512Z,38.46
2022-08-05T06:58:57.177Z,38.44
2022-08-05T07:01:00.295Z,38.15
2022-08-05T07:03:01.956Z,38.13
2022-08-05T07:05:03.561Z,37.84
2022-08-05T07:07:16.053Z,37.61
2022-08-05T07:09:25.840Z,37.55
2022-08-05T07:11:36.746Z,37.76
2022-08-05T07:13:59.813Z,37.55
2022-08-05T07:17:57.257Z,37.25
2022-08-05T07:18:47.707Z,37.28
2022-08-05T07:20:49.736Z,36.84
2022-08-05T07:22:51.599Z,37.33
2022-08-05T07:24:53.805Z,37.50
2022-08-05T07:26:55.436Z,37.57
2022-08-05T07:28:56.956Z,37.38
2022-08-05T07:31:01.448Z,36.97
2022-08-05T07:33:09.877Z,36.59
2022-08-05T07:35:55.693Z,36.54
2022-08-05T07:37:36.047Z,36.80
2022-08-05T07:40:04.567Z,36.80
2022-08-05T07:42:13.074Z,36.07
2022-08-05T07:44:18.901Z,36.51
2022-08-05T07:46:24.523Z,36.24
2022-08-05T07:49:02.903Z,35.86
2022-08-05T07:50:48.701Z,35.67
2022-08-05T07:52:52.095Z,35.93
2022-08-05T07:54:54.877Z,35.48
2022-08-05T07:57:13.758Z,35.78
2022-08-05T07:59:18.013Z,35.25
2022-08-05T08:01:26.688Z,35.53
2022-08-05T08:03:44.371Z,35.42
2022-08-05T08:05:49.599Z,35.29
2022-08-05T08:07:59.603Z,35.01
2022-08-05T08:10:02.519Z,35.32
2022-08-05T08:12:14.330Z,35.23
2022-08-05T08:14:22.791Z,34.79
2022-08-05T08:16:35.347Z,35.10
2022-08-05T08:18:50.166Z,34.89
2022-08-05T08:21:02.265Z,35.10
2022-08-05T08:23:05.512Z,34.85
2022-08-05T08:25:16.246Z,35.09
2022-08-05T08:27:18.468Z,34.82
2022-08-05T08:30:03.186Z,34.57
2022-08-05T08:31:41.642Z,34.67
2022-08-05T08:33:46.030Z,34.53
2022-08-05T08:36:12.792Z,34.63
2022-08-05T08:38:16.758Z,34.26
2022-08-05T08:40:38.197Z,34.24
2022-08-05T08:42:50.434Z,34.18
2022-08-05T08:45:22.542Z,34.24
2022-08-05T08:48:06.328Z,33.96
2022-08-05T08:50:07.691Z,33.83
2022-08-05T08:52:19.617Z,33.63
2022-08-05T08:54:21.374Z,33.61
2022-08-05T08:56:29.878Z,33.49
2022-08-05T08:58:37.508Z,33.35
2022-08-05T09:00:48.467Z,33.34
2022-08-05T09:02:51.909Z,33.33
2022-08-05T09:05:16.805Z,33.14
2022-08-05T09:07:28.201Z,33.34
2022-08-05T09:09:35.372Z,33.34
2022-08-05T09:11:52.170Z,33.67
2022-08-05T09:14:10.045Z,33.62
2022-08-05T09:16:19.439Z,33.66
2022-08-05T09:18:21.629Z,33.72
2022-08-05T09:20:37.803Z,33.62
2022-08-05T09:23:05.127Z,33.59
2022-08-05T09:25:13.741Z,33.59
2022-08-05T09:28:04.449Z,33.63
2022-08-05T09:30:06.098Z,33.39
2022-08-05T09:32:41.620Z,33.10
2022-08-05T09:34:52.205Z,32.73
2022-08-05T09:36:59.979Z,32.65
2022-08-05T09:39:16.620Z,32.31
2022-08-05T09:41:19.973Z,32.26
2022-08-05T09:43:40.992Z,31.94
2022-08-05T09:46:07.082Z,31.34
2022-08-05T09:48:26.980Z,29.37
2022-08-05T09:50:44.791Z,28.75
2022-08-05T09:52:48.292Z,29.66
2022-08-05T09:55:55.418Z,29.75
2022-08-05T09:57:30.342Z,28.47
2022-08-05T09:59:37.314Z,29.32
2022-08-05T10:01:45.724Z,29.45
2022-08-05T10:04:03.229Z,29.01
2022-08-05T10:06:15.640Z,29.18
2022-08-05T10:08:35.973Z,29.83
2022-08-05T10:10:53.933Z,29.31
2022-08-05T10:12:58.881Z,28.76
2022-08-05T10:15:20.378Z,28.28
2022-08-05T10:17:39.834Z,28.40
2022-08-05T10:20:04.488Z,29.15
2022-08-05T10:22:04.282Z,28.37
2022-08-05T10:24:10.763Z,28.48
2022-08-05T10:26:14.975Z,28.76
2022-08-05T10:28:19.459Z,28.65
2022-08-05T10:32:48.752Z,28.79
2022-08-05T10:33:01.746Z,28.63
2022-08-05T10:35:04.692Z,29.06
2022-08-05T10:37:07.165Z,28.68
2022-08-05T10:39:24.990Z,28.57
2022-08-05T10:42:00.853Z,28.36
2022-08-05T10:44:09.773Z,28.23
2022-08-05T10:46:14.841Z,28.61
2022-08-05T10:48:39.628Z,28.70
2022-08-05T10:51:57.721Z,28.99
2022-08-05T10:54:05.907Z,28.48
2022-08-05T10:56:29.020Z,28.92
2022-08-05T10:58:47.707Z,28.94
2022-08-05T11:00:55.411Z,28.57
2022-08-05T11:03:23.805Z,28.29
2022-08-05T11:05:31.503Z,28.36
2022-08-05T11:08:01.314Z,28.18
2022-08-05T11:10:03.754Z,28.39
2022-08-05T11:12:26.567Z,28.63
2022-08-05T11:15:00.981Z,28.49
2022-08-05T11:17:58.651Z,28.60
2022-08-05T11:20:11.290Z,28.38
2022-08-05T11:22:43.041Z,27.99
2022-08-05T11:25:16.520Z,28.10
2022-08-05T11:27:50.148Z,27.43
2022-08-05T11:29:59.974Z,27.15
2022-08-05T11:32:25.465Z,27.57
2022-08-05T11:34:40.037Z,27.35
2022-08-05T11:36:54.032Z,27.83
2022-08-05T11:38:57.537Z,27.63
2022-08-05T11:41:35.104Z,27.44
2022-08-05T11:44:07.325Z,27.43
2022-08-05T11:46:16.164Z,27.51
2022-08-05T11:48:11.601Z,27.63
2022-08-05T11:50:14.414Z,27.93
2022-08-05T11:52:23.693Z,27.89
2022-08-05T11:54:38.180Z,27.59
2022-08-05T11:56:52.818Z,27.56
2022-08-05T11:58:54.412Z,27.59
2022-08-05T12:01:08.507Z,27.84
2022-08-05T12:03:28.625Z,28.00
2022-08-05T12:05:39.724Z,27.93
2022-08-05T12:08:07.814Z,28.16
2022-08-05T12:10:09.117Z,28.04
2022-08-05T12:12:13.103Z,28.06
2022-08-05T12:14:14.862Z,27.84
2022-08-05T12:16:19.537Z,27.57
2022-08-05T12:18:38.849Z,27.66
2022-08-05T12:20:41.337Z,27.73
2022-08-05T12:22:43.104Z,27.34
2022-08-05T12:24:51.725Z,27.23
2022-08-05T12:26:54.807Z,27.14
2022-08-05T12:28:56.357Z,27.42
2022-08-05T12:31:02.232Z,26.82
2022-08-05T12:33:07.138Z,26.79
2022-08-05T12:35:37.268Z,26.74
2022-08-05T12:37:42.968Z,26.49
2022-08-05T12:39:48.699Z,26.52
2022-08-05T12:42:02.034Z,26.23
2022-08-05T12:44:11.625Z,26.38
2022-08-05T12:46:31.357Z,26.12
2022-08-05T12:48:39.969Z,26.51
2022-08-05T12:50:41.608Z,26.24
2022-08-05T12:52:55.323Z,25.61
2022-08-05T12:54:59.700Z,25.98
2022-08-05T12:57:09.708Z,25.95
2022-08-05T12:59:21.006Z,25.86
2022-08-05T13:02:03.769Z,25.31
2022-08-05T13:03:51.546Z,25.89
2022-08-05T13:05:53.541Z,25.58
2022-08-05T13:08:00.058Z,25.81
2022-08-05T13:10:02.607Z,25.82
2022-08-05T13:12:06.699Z,25.88
2022-08-05T13:14:20.084Z,25.74
2022-08-05T13:16:24.954Z,25.67
2022-08-05T13:18:37.777Z,25.55
2022-08-05T13:20:40.205Z,25.49
2022-08-05T13:22:46.482Z,25.45
2022-08-05T13:24:57.991Z,25.72
2022-08-05T13:27:02.050Z,25.43
2022-08-05T13:29:05.126Z,25.52
2022-08-05T13:31:13.883Z,25.31
2022-08-05T13:34:21.508Z,25.40
2022-08-05T13:35:42.620Z,25.67
2022-08-05T13:37:45.149Z,25.19
2022-08-05T13:40:15.905Z,25.44
2022-08-05T13:42:19.752Z,25.32
2022-08-05T13:44:21.589Z,25.10
2022-08-05T13:48:57.244Z,25.07
2022-08-05T13:51:08.350Z,24.84
2022-08-05T13:53:15.804Z,24.96
2022-08-05T13:55:40.940Z,24.96
2022-08-05T13:57:50.886Z,24.83
2022-08-05T13:59:59.425Z,24.44
2022-08-05T14:02:20.102Z,24.85
2022-08-05T14:04:40.482Z,24.76
2022-08-05T14:06:47.700Z,24.80
2022-08-05T14:08:49.460Z,24.68
2022-08-05T14:10:51.073Z,24.44
2022-08-05T14:12:54.627Z,24.58
2022-08-05T14:14:56.583Z,24.92
2022-08-05T14:16:58.258Z,24.78
2022-08-05T14:19:04.432Z,24.89
2022-08-05T14:22:09.021Z,24.69
2022-08-05T14:23:36.673Z,24.99
2022-08-05T14:25:44.964Z,24.43
2022-08-05T14:27:48.353Z,24.81
2022-08-05T14:29:51.353Z,25.00
2022-08-05T14:32:03.134Z,25.24
2022-08-05T14:34:15.408Z,25.17
2022-08-05T14:36:20.520Z,24.69
2022-08-05T14:38:33.333Z,24.77
2022-08-05T14:40:37.698Z,24.74
2022-08-05T14:42:41.213Z,25.01
2022-08-05T14:44:45.776Z,25.11
2022-08-05T14:46:47.453Z,24.81
2022-08-05T14:48:50.376Z,25.20
2022-08-05T14:50:51.986Z,24.83
2022-08-05T14:52:57.608Z,24.72
2022-08-05T14:55:00.328Z,24.65
2022-08-05T14:57:05.420Z,25.23
2022-08-05T14:59:11.575Z,24.73
2022-08-05T15:01:15.951Z,25.41
2022-08-05T15:03:17.946Z,25.35
2022-08-05T15:05:20.021Z,25.27
2022-08-05T15:08:08.792Z,25.51
2022-08-05T15:09:52.725Z,25.50
2022-08-05T15:11:57.717Z,25.50
2022-08-05T15:13:59.468Z,25.69
2022-08-05T15:16:02.324Z,25.69
2022-08-05T15:18:06.554Z,25.87
2022-08-05T15:20:18.847Z,25.88
2022-08-05T15:22:20.747Z,25.87
2022-08-05T15:24:23.009Z,26.04
2022-08-05T15:26:32.287Z,26.35
2022-08-05T15:28:34.144Z,26.32
2022-08-05T15:30:36.951Z,25.88
2022-08-05T15:32:39.996Z,26.61
2022-08-05T15:34:42.077Z,26.56
2022-08-05T15:36:43.827Z,26.50
2022-08-05T15:38:46.402Z,26.83
2022-08-05T15:41:02.401Z,27.06
2022-08-05T15:43:19.626Z,26.65
2022-08-05T15:45:37.856Z,27.15
2022-08-05T15:47:42.253Z,27.11
2022-08-05T15:49:58.552Z,27.21
2022-08-05T15:52:12.924Z,27.40
2022-08-05T15:54:18.138Z,27.85
2022-08-05T15:56:20.633Z,27.61
2022-08-05T15:58:23.304Z,27.73
2022-08-05T16:00:26.474Z,28.05
2022-08-05T16:02:45.414Z,27.84
2022-08-05T16:04:49.046Z,27.92
2022-08-05T16:06:50.980Z,28.04
2022-08-05T16:08:53.677Z,27.99
2022-08-05T16:10:57.280Z,27.98
2022-08-05T16:12:58.966Z,28.11
2022-08-05T16:15:01.721Z,28.32
2022-08-05T16:17:03.743Z,28.61
2022-08-05T16:19:05.736Z,28.49
2022-08-05T16:21:07.300Z,28.42
2022-08-05T16:23:09.303Z,29.27
2022-08-05T16:25:10.924Z,28.94
2022-08-05T16:27:16.050Z,29.01
2022-08-05T16:29:18.330Z,29.25
2022-08-05T16:31:23.027Z,29.29
2022-08-05T16:33:27.024Z,29.72
2022-08-05T16:35:33.777Z,29.90
2022-08-05T16:38:16.226Z,29.98
2022-08-05T16:40:13.559Z,30.27
2022-08-05T16:42:28.266Z,30.61
2022-08-05T16:44:30.425Z,30.40
2022-08-05T16:46:32.329Z,30.39
2022-08-05T16:48:35.252Z,30.57
2022-08-05T16:50:38.811Z,30.47
2022-08-05T16:52:40.430Z,30.58
2022-08-05T16:54:47.867Z,31.01
2022-08-05T16:56:51.911Z,30.85
2022-08-05T16:58:54.179Z,30.77
2022-08-05T17:00:55.767Z,30.88
2022-08-05T17:02:57.290Z,31.09
2022-08-05T17:04:58.937Z,31.26
2022-08-05T17:07:01.414Z,31.79
2022-08-05T17:09:04.902Z,31.74
2022-08-05T17:11:08.222Z,31.69
2022-08-05T17:13:17.155Z,32.03
2022-08-05T17:15:47.826Z,32.07
2022-08-05T17:17:55.036Z,31.81
2022-08-05T17:19:57.150Z,32.17
2022-08-05T17:21:58.865Z,31.55
2022-08-05T17:24:04.289Z,32.16
2022-08-05T17:26:09.787Z,32.10
2022-08-05T17:28:15.394Z,31.80
2022-08-05T17:30:18.827Z,32.03
2022-08-05T17:32:32.177Z,32.18
2022-08-05T17:34:36.362Z,32.52
2022-08-05T17:36:40.769Z,32.10
2022-08-05T17:38:42.407Z,32.78
2022-08-05T17:40:44.553Z,32.59
2022-08-05T17:42:51.978Z,32.37
2022-08-05T17:44:55.502Z,32.64
2022-08-05T17:46:57.080Z,32.69
2022-08-05T17:48:59.877Z,33.34
2022-08-05T17:51:02.267Z,32.82
2022-08-05T17:53:11.562Z,33.59
2022-08-05T17:55:13.828Z,33.12
2022-08-05T17:57:17.349Z,33.37
2022-08-05T17:59:21.112Z,33.64
2022-08-05T18:01:24.434Z,33.23
2022-08-05T18:03:58.302Z,33.07
2022-08-05T18:05:52.669Z,33.13
2022-08-05T18:07:55.357Z,33.17
2022-08-05T18:10:01.915Z,33.47
2022-08-05T18:12:04.726Z,33.53
2022-08-05T18:14:13.569Z,33.23
2022-08-05T18:16:22.341Z,34.00
2022-08-05T18:18:26.899Z,33.98
2022-08-05T18:20:29.556Z,33.75
2022-08-05T18:22:36.300Z,33.57
2022-08-05T18:24:55.311Z,33.59
2022-08-05T18:26:58.179Z,34.11
2022-08-05T18:29:00.221Z,33.74
2022-08-05T18:31:02.519Z,33.76
2022-08-05T18:33:04.660Z,34.14
2022-08-05T18:35:07.240Z,34.24
2022-08-05T18:37:16.879Z,34.43
2022-08-05T18:40:30.980Z,34.76
2022-08-05T18:42:02.211Z,34.58
2022-08-05T18:44:09.460Z,34.63
2022-08-05T18:46:11.140Z,34.91
2022-08-05T18:48:17.556Z,35.00
2022-08-05T18:50:51.401Z,35.61
2022-08-05T18:52:54.452Z,35.51
2022-08-05T18:54:56.228Z,35.88
2022-08-05T18:56:58.024Z,36.45
2022-08-05T18:59:02.333Z,36.60
2022-08-05T19:01:33.510Z,37.14
2022-08-05T19:03:52.902Z,36.99
2022-08-05T19:06:12.136Z,37.38
2022-08-05T19:08:19.301Z,37.62
2022-08-05T19:10:28.142Z,37.40
2022-08-05T19:12:33.714Z,37.77
2022-08-05T19:14:59.217Z,37.43
2022-08-05T19:16:57.076Z,37.86
2022-08-05T19:18:58.659Z,38.04
2022-08-05T19:21:00.271Z,37.96
2022-08-05T19:23:01.836Z,38.16
2022-08-05T19:25:10.041Z,38.77
2022-08-05T19:27:24.246Z,39.02
2022-08-05T19:29:36.087Z,39.06
2022-08-05T19:31:44.946Z,38.99
2022-08-05T19:33:56.672Z,38.80
2022-08-05T19:35:58.552Z,39.28
2022-08-05T19:38:06.318Z,39.18
2022-08-05T19:40:10.840Z,39.26
2022-08-05T19:42:13.463Z,39.53
2022-08-05T19:44:18.702Z,39.46
2022-08-05T19:46:30.295Z,39.35
2022-08-05T19:48:32.551Z,39.73
2022-08-05T19:50:36.600Z,39.39
2022-08-05T19:52:40.198Z,39.72
2022-08-05T19:54:41.891Z,39.94
2022-08-05T19:56:43.621Z,39.45
2022-08-05T19:58:53.875Z,40.13
2022-08-05T20:00:55.887Z,39.98
2022-08-05T20:02:58.738Z,40.13
2022-08-05T20:05:00.575Z,40.21
2022-08-05T20:07:04.210Z,40.36
2022-08-05T20:09:16.755Z,40.38
2022-08-05T20:11:21.165Z,40.69
2022-08-05T20:13:30.068Z,40.31
2022-08-05T20:15:52.072Z,40.87
2022-08-05T20:18:01.247Z,41.09
2022-08-05T20:20:09.477Z,40.85
2022-08-05T20:22:12.784Z,40.72
2022-08-05T20:24:14.496Z,40.86
2022-08-05T20:26:23.849Z,40.95
2022-08-05T20:28:25.747Z,40.90
2022-08-05T20:30:30.148Z,41.02
2022-08-05T20:32:32.300Z,40.76
2022-08-05T20:34:35.044Z,40.61
2022-08-05T20:36:39.196Z,40.83
2022-08-05T20:38:54.254Z,40.74
2022-08-05T20:40:59.586Z,41.07
2022-08-05T20:43:06.358Z,41.11
2022-08-05T20:45:08.795Z,40.91
2022-08-05T20:47:10.361Z,40.84
2022-08-05T20:49:12.755Z,41.14
2022-08-05T20:51:15.655Z,41.01
2022-08-05T20:53:36.905Z,40.85
2022-08-05T20:55:56.247Z,41.29
2022-08-05T20:58:00.643Z,41.54
2022-08-05T21:00:20.762Z,41.26
2022-08-05T21:02:26.803Z,41.57
2022-08-05T21:04:30.265Z,41.62
2022-08-05T21:06:31.911Z,41.87
2022-08-05T21:08:42.251Z,41.91
2022-08-05T21:10:48.555Z,41.61
2022-08-05T21:12:58.090Z,41.41
2022-08-05T21:15:11.968Z,41.27
2022-08-05T21:17:14.563Z,41.40
2022-08-05T21:19:16.298Z,40.82
2022-08-05T21:21:17.911Z,40.73
2022-08-05T21:23:25.959Z,40.49
2022-08-05T21:25:33.654Z,40.73
2022-08-05T21:27:38.546Z,40.47
2022-08-05T21:29:40.994Z,40.50
2022-08-05T21:31:42.651Z,39.92
2022-08-05T21:33:47.841Z,40.07
2022-08-05T21:35:58.708Z,40.23
2022-08-05T21:38:02.168Z,39.79
2022-08-05T21:40:05.712Z,39.86
2022-08-05T21:42:38.947Z,40.30
2022-08-05T21:44:31.728Z,40.66
2022-08-05T21:46:34.286Z,41.14
2022-08-05T21:48:36.568Z,40.98
2022-08-05T21:50:53.125Z,41.86
2022-08-05T21:52:58.778Z,41.62
2022-08-05T21:55:06.229Z,42.00
2022-08-05T21:57:29.870Z,42.33
2022-08-05T21:59:42.677Z,42.08
2022-08-05T22:01:54.604Z,42.40
2022-08-05T22:03:56.585Z,41.93
2022-08-05T22:05:58.709Z,42.25
2022-08-05T22:08:02.419Z,42.53
2022-08-05T22:10:05.070Z,42.65
2022-08-05T22:12:10.629Z,42.41
2022-08-05T22:14:31.240Z,42.43
2022-08-05T22:16:51.290Z,42.16
2022-08-05T22:18:58.671Z,41.99
2022-08-05T22:21:04.197Z,42.47
2022-08-05T22:24:01.097Z,42.26
2022-08-05T22:26:09.565Z,42.57
2022-08-05T22:28:12.641Z,41.77
2022-08-05T22:30:17.069Z,41.76
2022-08-05T22:32:19.402Z,41.20
2022-08-05T22:34:25.439Z,40.94
2022-08-05T22:36:30.886Z,40.79
2022-08-05T22:38:32.465Z,40.53
2022-08-05T22:40:36.079Z,40.83
2022-08-05T22:42:41.210Z,40.72
2022-08-05T22:44:48.563Z,40.94
2022-08-05T22:46:58.200Z,40.95
2022-08-05T22:49:00.533Z,41.04
2022-08-05T22:51:06.756Z,41.26
2022-08-05T22:53:10.251Z,41.82
2022-08-05T22:55:21.184Z,41.97
2022-08-05T22:57:23.315Z,41.63
2022-08-05T22:59:45.279Z,41.69
2022-08-05T23:02:04.311Z,41.89
2022-08-05T23:04:08.363Z,41.94
2022-08-05T23:06:10.406Z,41.61
2022-08-05T23:08:12.467Z,41.67
2022-08-05T23:10:19.843Z,41.73
2022-08-05T23:12:24.302Z,41.85
2022-08-05T23:14:31.735Z,41.39
2022-08-05T23:16:52.895Z,41.12
2022-08-05T23:18:54.679Z,41.42
2022-08-05T23:20:57.435Z,41.84
2022-08-05T23:23:03.466Z,41.95
2022-08-05T23:25:08.021Z,41.86
2022-08-05T23:27:13.258Z,42.23
2022-08-05T23:29:15.735Z,42.25
2022-08-05T23:31:18.083Z,42.56
2022-08-05T23:33:25.811Z,42.64
2022-08-05T23:35:41.597Z,42.21
2022-08-05T23:37:43.627Z,42.36
2022-08-05T23:39:54.204Z,42.39
2022-08-05T23:41:56.627Z,42.36
2022-08-05T23:44:06.146Z,42.27
2022-08-05T23:46:21.251Z,42.23
2022-08-05T23:48:23.801Z,42.29
2022-08-05T23:50:28.222Z,42.61
2022-08-05T23:52:35.802Z,42.45
2022-08-05T23:54:38.354Z,42.17
2022-08-05T23:56:40.469Z,42.44
2022-08-05T23:58:44.087Z,41.91
